Time;durP1;ratioP1;P1;durP2;ratioP2;P2;SDS_P1;SDS_P2;PMS_P1;PMS_P2;Temp;Humidity;BMP_temperature;BMP_pressure;BME280_temperature;BME280_humidity;BME280_pressure;Samples;Min_cycle;Max_cycle;Signal;HPM_P1;HPM_P2
2023/03/14 00:00:32;;;;;;;;;0.50;0.25;;;;;13.38;70.23;99037.63;6153258;23;45140;-79
2023/03/14 00:02:58;;;;;;;;;2.75;1.00;;;;;13.35;70.03;99033.34;6153279;23;45227;-79
2023/03/14 00:05:23;;;;;;;;;0.75;0.00;;;;;13.32;70.14;99022.84;6153104;23;47028;-79
2023/03/14 00:07:49;;;;;;;;;0.25;0.00;;;;;13.31;70.00;99018.41;6154072;23;45185;-79
2023/03/14 00:10:14;;;;;;;;;0.00;0.00;;;;;13.32;70.37;99018.31;6154276;23;44692;-80
2023/03/14 00:12:41;;;;;;;;;0.50;0.50;;;;;13.33;70.60;99012.00;6154912;23;45275;-80
2023/03/14 00:15:07;;;;;;;;;1.25;0.00;;;;;13.31;70.56;99021.09;6152838;23;47079;-80
2023/03/14 00:17:34;;;;;;;;;0.00;0.00;;;;;13.26;70.68;99015.19;6154207;23;45387;-79
2023/03/14 00:20:07;;;;;;;;;0.00;0.00;;;;;13.13;71.07;99001.81;6153132;23;45349;-80
2023/03/14 00:22:42;;;;;;;;;0.00;0.00;;;;;13.29;70.68;99021.19;6154072;23;45279;-80
2023/03/14 00:25:09;;;;;;;;;1.50;0.25;;;;;13.23;70.73;99005.56;6154573;23;45277;-80
2023/03/14 00:27:36;;;;;;;;;0.25;0.00;;;;;13.19;70.90;98993.34;6154313;23;45256;-80
2023/03/14 00:30:01;;;;;;;;;0.25;0.00;;;;;13.26;71.07;99008.00;6154581;23;45183;-80
2023/03/14 00:32:27;;;;;;;;;1.25;0.00;;;;;13.23;71.25;99002.00;6152679;23;45981;-80
2023/03/14 00:34:52;;;;;;;;;0.25;0.25;;;;;13.24;71.31;99009.09;6153750;23;46170;-79
2023/03/14 00:37:17;;;;;;;;;1.00;0.00;;;;;13.18;71.25;98994.31;6152859;23;45133;-80
2023/03/14 00:39:43;;;;;;;;;1.00;0.00;;;;;13.11;71.31;98990.34;6152973;23;45279;-80
2023/03/14 00:42:08;;;;;;;;;0.00;0.00;;;;;13.11;71.45;98991.22;6154323;23;45429;-80
2023/03/14 00:44:34;;;;;;;;;0.00;0.00;;;;;13.07;71.71;98978.16;6154307;23;45176;-79
2023/03/14 00:46:59;;;;;;;;;2.00;0.00;;;;;13.11;71.61;98982.31;6151532;23;45224;-79
2023/03/14 00:49:25;;;;;;;;;0.00;0.00;;;;;13.07;71.73;98986.19;6154422;23;45197;-80
2023/03/14 00:51:51;;;;;;;;;1.00;0.50;;;;;13.05;71.89;98974.72;6154108;23;45270;-79
2023/03/14 00:54:17;;;;;;;;;0.00;0.00;;;;;13.10;72.16;98989.50;6153467;23;47186;-79
2023/03/14 00:56:42;;;;;;;;;3.25;0.75;;;;;12.97;71.88;98976.09;6153821;23;45199;-79
2023/03/14 00:59:07;;;;;;;;;0.00;0.00;;;;;13.10;72.13;98994.84;6154636;23;45598;-79
2023/03/14 01:01:33;;;;;;;;;2.75;1.00;;;;;12.98;72.62;98974.31;6151870;23;48805;-79
2023/03/14 01:03:58;;;;;;;;;1.00;0.00;;;;;13.04;72.78;98989.91;6154974;23;45274;-79
2023/03/14 01:06:26;;;;;;;;;5.00;0.00;;;;;13.10;72.22;99002.03;6152182;23;45246;-79
2023/03/14 01:08:52;;;;;;;;;2.50;0.75;;;;;13.10;72.62;98994.00;6154247;23;45217;-79
2023/03/14 01:11:19;;;;;;;;;1.00;0.00;;;;;13.09;72.70;98978.88;6154572;23;45175;-79
2023/03/14 01:13:45;;;;;;;;;0.00;0.00;;;;;13.09;72.69;98994.97;6152710;23;47026;-79
2023/03/14 01:16:12;;;;;;;;;3.25;0.25;;;;;13.08;72.57;98988.75;6154042;23;45289;-79
2023/03/14 01:18:39;;;;;;;;;2.00;1.00;;;;;13.09;72.83;98989.59;6154163;23;45253;-79
2023/03/14 01:21:17;;;;;;;;;2.00;0.75;;;;;13.06;72.65;98995.19;6154042;23;45426;-79
2023/03/14 01:23:43;;;;;;;;;1.25;0.50;;;;;13.03;72.68;98988.22;6152548;23;48289;-79
2023/03/14 01:26:11;;;;;;;;;2.25;0.75;;;;;13.00;72.89;98979.53;6153962;23;45186;-79
2023/03/14 01:28:37;;;;;;;;;1.75;0.00;;;;;12.97;72.92;98977.94;6154367;23;45240;-79
2023/03/14 01:31:04;;;;;;;;;1.00;1.00;;;;;13.05;72.93;98993.47;6153061;23;45195;-79
2023/03/14 01:33:30;;;;;;;;;6.00;2.00;;;;;12.96;72.74;98985.13;6154651;23;45718;-79
2023/03/14 01:35:55;;;;;;;;;1.50;1.00;;;;;13.04;72.98;98994.44;6154073;23;45216;-79
2023/03/14 01:38:20;;;;;;;;;0.75;0.75;;;;;13.05;72.89;98993.47;6154170;23;45391;-79
2023/03/14 01:40:46;;;;;;;;;0.25;0.25;;;;;12.94;73.16;98968.28;6153876;23;54974;-79
2023/03/14 01:43:17;;;;;;;;;0.75;0.00;;;;;13.03;73.17;98982.00;6153067;23;49393;-79
2023/03/14 01:45:58;;;;;;;;;1.50;1.00;;;;;13.08;73.00;98990.56;6155653;23;45447;-79
2023/03/14 01:48:25;;;;;;;;;0.00;0.00;;;;;12.91;73.00;98957.81;6155136;23;45125;-79
2023/03/14 01:50:51;;;;;;;;;2.00;1.00;;;;;13.06;73.26;98982.63;6156550;23;45278;-79
2023/03/14 01:53:21;;;;;;;;;0.75;0.00;;;;;12.97;73.51;98970.75;6156364;23;45269;-79
2023/03/14 01:55:47;;;;;;;;;1.50;0.00;;;;;12.98;73.34;98961.75;6155236;23;45436;-79
2023/03/14 01:58:15;;;;;;;;;2.00;1.00;;;;;13.08;73.36;98985.19;6156786;23;45181;-79
2023/03/14 02:00:41;;;;;;;;;0.00;0.00;;;;;13.18;73.39;98996.13;6154153;23;45441;-79
2023/03/14 02:03:11;;;;;;;;;0.00;0.00;;;;;13.10;73.72;98996.69;6154652;23;48168;-79
2023/03/14 02:05:40;;;;;;;;;1.00;0.00;;;;;13.16;73.76;99005.16;6154509;23;45693;-79
2023/03/14 02:08:09;;;;;;;;;1.75;0.75;;;;;13.07;73.77;98996.91;6154013;23;45250;-79
2023/03/14 02:10:42;;;;;;;;;0.00;0.00;;;;;13.14;73.82;98998.16;6154008;23;45722;-79
2023/03/14 02:13:08;;;;;;;;;1.00;0.00;;;;;13.08;73.98;98995.91;6156002;23;45883;-80
2023/03/14 02:15:34;;;;;;;;;0.50;0.00;;;;;13.04;73.78;98981.03;6155569;23;45262;-79
2023/03/14 02:18:02;;;;;;;;;0.00;0.00;;;;;13.17;74.03;99000.63;6154227;23;45246;-79
2023/03/14 02:20:41;;;;;;;;;1.00;0.00;;;;;13.09;74.12;98989.59;6154718;23;45660;-79
2023/03/14 02:23:06;;;;;;;;;0.50;0.00;;;;;13.08;74.41;98987.88;6154009;23;46984;-79
2023/03/14 02:25:35;;;;;;;;;1.50;0.50;;;;;13.15;74.40;99002.56;6155894;23;45147;-80
2023/03/14 02:28:01;;;;;;;;;0.00;0.00;;;;;13.09;74.59;98992.28;6154068;23;45200;-80
2023/03/14 02:30:30;;;;;;;;;0.50;0.00;;;;;13.14;74.76;98993.66;6154708;23;45213;-80
2023/03/14 02:33:01;;;;;;;;;0.00;0.00;;;;;13.16;74.87;98983.72;6155001;23;46362;-80
2023/03/14 02:35:32;;;;;;;;;0.00;0.00;;;;;13.09;74.96;98974.38;6155932;23;45350;-80
2023/03/14 02:38:06;;;;;;;;;2.00;0.00;;;;;13.07;74.68;98973.63;6153695;23;45265;-80
2023/03/14 02:40:32;;;;;;;;;0.00;0.00;;;;;13.08;74.59;98978.03;6155805;23;45266;-80
2023/03/14 02:42:57;;;;;;;;;0.00;0.00;;;;;12.94;75.27;98957.56;6153767;23;47170;-80
2023/03/14 02:45:23;;;;;;;;;1.75;0.00;;;;;13.08;75.20;98980.72;6155273;23;45256;-80
2023/03/14 02:48:02;;;;;;;;;0.00;0.00;;;;;13.07;75.10;98986.19;6154663;23;45255;-80
2023/03/14 02:50:33;;;;;;;;;0.00;0.00;;;;;13.08;75.31;98977.16;6154199;23;45840;-80
2023/03/14 02:52:58;;;;;;;;;0.50;0.00;;;;;13.08;75.44;98974.47;6154464;23;47739;-80
2023/03/14 02:55:25;;;;;;;;;0.00;0.00;;;;;13.04;75.50;98962.28;6154777;23;45368;-80
2023/03/14 02:57:50;;;;;;;;;0.50;0.00;;;;;13.10;75.51;98972.59;6153671;23;45287;-80
2023/03/14 03:00:16;;;;;;;;;0.00;0.00;;;;;13.05;75.92;98972.91;6153752;23;46206;-80
2023/03/14 03:02:42;;;;;;;;;0.25;0.00;;;;;13.10;75.89;98972.59;6156110;23;46262;-80
2023/03/14 03:05:07;;;;;;;;;0.00;0.00;;;;;12.98;76.01;98951.06;6154293;23;45236;-80
2023/03/14 03:07:33;;;;;;;;;1.00;0.00;;;;;13.07;75.98;98976.31;6153635;23;45244;-80
2023/03/14 03:09:58;;;;;;;;;0.00;0.00;;;;;13.08;76.17;98986.06;6154547;23;45135;-80
2023/03/14 03:12:24;;;;;;;;;0.00;0.00;;;;;12.93;76.18;98955.00;6155439;23;45108;-80
2023/03/14 03:14:49;;;;;;;;;1.50;0.00;;;;;12.95;76.30;98967.34;6155938;23;45238;-80
2023/03/14 03:17:14;;;;;;;;;0.00;0.00;;;;;13.08;76.29;98990.56;6155198;23;45393;-80
2023/03/14 03:19:40;;;;;;;;;1.00;0.00;;;;;13.03;76.52;98979.31;6154809;23;45127;-80
2023/03/14 03:22:05;;;;;;;;;0.50;0.00;;;;;13.09;76.65;98990.44;6155865;23;45230;-80
2023/03/14 03:24:30;;;;;;;;;0.00;0.00;;;;;13.06;76.60;98973.75;6155145;23;45182;-80
2023/03/14 03:26:56;;;;;;;;;0.00;0.00;;;;;13.05;76.82;98982.75;6154408;23;45218;-80
2023/03/14 03:29:21;;;;;;;;;0.00;0.00;;;;;13.04;76.91;98989.91;6155048;23;49651;-80
2023/03/14 03:31:47;;;;;;;;;0.50;0.00;;;;;12.97;77.03;98981.47;6153952;23;45967;-80
2023/03/14 03:34:13;;;;;;;;;0.00;0.00;;;;;12.88;77.13;98971.41;6154377;23;48814;-80
2023/03/14 03:36:39;;;;;;;;;0.00;0.00;;;;;12.91;76.94;98973.00;6153171;23;45223;-80
2023/03/14 03:39:04;;;;;;;;;0.25;0.00;;;;;13.05;77.21;98998.84;6155931;23;45230;-80
2023/03/14 03:41:30;;;;;;;;;0.00;0.00;;;;;13.10;77.08;99005.56;6153336;23;47234;-80
2023/03/14 03:43:56;;;;;;;;;0.00;0.00;;;;;13.06;77.14;98996.03;6154738;23;45245;-80
2023/03/14 03:46:21;;;;;;;;;0.00;0.00;;;;;13.12;77.38;99006.31;6153703;23;45316;-80
2023/03/14 03:48:46;;;;;;;;;0.00;0.00;;;;;13.12;77.29;99005.47;6153910;23;45175;-80
2023/03/14 03:51:13;;;;;;;;;0.00;0.00;;;;;13.09;77.44;99003.00;6154987;23;46506;-80
2023/03/14 03:53:39;;;;;;;;;0.00;0.00;;;;;13.09;77.54;99011.03;6155301;23;45197;-80
2023/03/14 03:56:05;;;;;;;;;0.00;0.00;;;;;13.04;77.58;98994.44;6154283;23;45196;-80
2023/03/14 03:58:31;;;;;;;;;1.00;0.00;;;;;12.96;77.31;98987.81;6153168;23;45534;-80
2023/03/14 04:00:56;;;;;;;;;0.50;0.00;;;;;13.10;77.69;99002.91;6154098;23;46145;-81
2023/03/14 04:03:21;;;;;;;;;0.00;0.00;;;;;12.96;77.63;98993.16;6154110;23;45305;-80
2023/03/14 04:05:57;;;;;;;;;0.75;0.00;;;;;13.05;77.62;99006.88;6154375;23;45270;-80
2023/03/14 04:08:22;;;;;;;;;0.00;0.00;;;;;12.98;77.50;98996.59;6152433;23;45717;-80
2023/03/14 04:10:47;;;;;;;;;0.00;0.00;;;;;13.09;77.74;99013.72;6153102;23;45147;-80
2023/03/14 04:13:12;;;;;;;;;1.00;0.75;;;;;13.09;77.61;99019.06;6154783;23;45249;-80
2023/03/14 04:15:38;;;;;;;;;0.00;0.00;;;;;13.06;77.49;99014.78;6153840;23;45213;-80
2023/03/14 04:18:03;;;;;;;;;0.00;0.00;;;;;12.95;77.54;98999.47;6154612;23;45353;-80
2023/03/14 04:20:28;;;;;;;;;0.00;0.00;;;;;13.16;77.53;99025.69;6154358;23;46144;-80
2023/03/14 04:22:54;;;;;;;;;1.00;0.00;;;;;13.13;77.52;99026.78;6152205;23;58276;-80
2023/03/14 04:25:19;;;;;;;;;0.00;0.00;;;;;13.14;77.74;99038.34;6152985;23;45311;-80
2023/03/14 04:27:45;;;;;;;;;1.00;0.00;;;;;13.15;77.57;99037.41;6154823;23;45239;-80
2023/03/14 04:30:10;;;;;;;;;0.25;0.00;;;;;13.16;77.63;99041.78;6154013;23;45187;-80
2023/03/14 04:32:39;;;;;;;;;0.00;0.00;;;;;13.17;77.81;99046.19;6153844;23;45148;-80
2023/03/14 04:35:04;;;;;;;;;0.00;0.00;;;;;13.06;77.95;99040.72;6151290;23;45226;-80
2023/03/14 04:37:30;;;;;;;;;0.00;0.00;;;;;13.06;78.02;99035.34;6152844;23;45171;-80
2023/03/14 04:39:55;;;;;;;;;0.00;0.00;;;;;13.20;78.28;99067.41;6154024;23;45920;-80
2023/03/14 04:42:20;;;;;;;;;0.00;0.00;;;;;13.11;77.75;99060.00;6153936;23;52415;-80
2023/03/14 04:44:46;;;;;;;;;0.00;0.00;;;;;13.22;78.05;99076.19;6154271;23;45153;-80
2023/03/14 04:47:12;;;;;;;;;0.00;0.00;;;;;13.24;78.04;99087.66;6154032;23;45468;-80
2023/03/14 04:49:37;;;;;;;;;0.00;0.00;;;;;13.24;78.28;99093.00;6153781;23;50104;-80
2023/03/14 04:52:03;;;;;;;;;0.00;0.00;;;;;13.18;78.13;99111.31;6152561;23;52468;-80
2023/03/14 04:54:28;;;;;;;;;0.00;0.00;;;;;13.09;77.56;99140.47;6154801;23;45245;-80
2023/03/14 04:56:53;;;;;;;;;0.00;0.00;;;;;13.05;76.82;99154.19;6152414;23;45388;-80
2023/03/14 04:59:19;;;;;;;;;0.00;0.00;;;;;12.90;76.54;99164.13;6153927;23;54730;-80
2023/03/14 05:01:44;;;;;;;;;0.00;0.00;;;;;12.92;76.65;99186.28;6153206;23;45302;-80
2023/03/14 05:04:09;;;;;;;;;1.00;0.00;;;;;12.88;76.51;99188.31;6152572;23;45369;-80
2023/03/14 05:06:35;;;;;;;;;1.00;0.00;;;;;12.73;76.27;99176.81;6151221;23;45443;-80
2023/03/14 05:09:00;;;;;;;;;0.75;0.00;;;;;12.78;75.66;99201.47;6152205;23;48427;-80
2023/03/14 05:11:26;;;;;;;;;1.00;0.00;;;;;12.71;74.93;99196.59;6153620;23;45206;-80
2023/03/14 05:13:51;;;;;;;;;0.00;0.00;;;;;12.72;74.98;99230.47;6154406;23;45115;-80
2023/03/14 05:16:16;;;;;;;;;1.25;1.25;;;;;12.62;72.61;99237.38;6153507;23;54414;-80
2023/03/14 05:18:42;;;;;;;;;1.50;0.25;;;;;12.62;72.51;99264.16;6153558;23;48047;-80
2023/03/14 05:21:07;;;;;;;;;1.25;1.25;;;;;12.42;72.35;99252.88;6155888;23;45207;-80
2023/03/14 05:23:32;;;;;;;;;3.25;1.00;;;;;12.47;72.81;99272.19;6154173;23;44655;-80
2023/03/14 05:25:58;;;;;;;;;2.50;0.75;;;;;12.43;72.61;99268.00;6153649;23;45306;-81
2023/03/14 05:28:23;;;;;;;;;2.00;1.00;;;;;12.42;72.19;99293.88;6153813;23;47434;-80
2023/03/14 05:30:48;;;;;;;;;0.75;0.75;;;;;12.34;71.90;99281.94;6155495;23;45282;-80
2023/03/14 05:33:14;;;;;;;;;1.00;1.00;;;;;12.27;72.18;99292.19;6154550;23;45191;-80
2023/03/14 05:35:39;;;;;;;;;1.50;0.75;;;;;12.34;71.55;99314.06;6155508;23;45237;-80
2023/03/14 05:38:04;;;;;;;;;4.00;1.00;;;;;12.31;70.87;99322.28;6155554;23;47283;-80
2023/03/14 05:40:29;;;;;;;;;2.00;2.00;;;;;12.27;71.06;99324.28;6155346;23;52169;-80
2023/03/14 05:42:55;;;;;;;;;3.50;1.50;;;;;12.27;70.66;99332.31;6155676;23;45205;-80
2023/03/14 05:45:20;;;;;;;;;0.50;0.50;;;;;12.22;69.97;99345.97;6155270;23;45141;-80
2023/03/14 05:47:46;;;;;;;;;2.25;2.25;;;;;12.14;70.06;99356.28;6155508;23;45147;-80
2023/03/14 05:50:11;;;;;;;;;1.50;1.00;;;;;12.05;69.77;99359.53;6156017;23;45255;-80
2023/03/14 05:52:37;;;;;;;;;3.00;1.75;;;;;12.09;69.81;99379.75;6153654;23;45328;-80
2023/03/14 05:55:03;;;;;;;;;3.50;2.50;;;;;11.98;69.62;99384.91;6154112;23;44846;-80
2023/03/14 05:57:28;;;;;;;;;2.50;1.50;;;;;11.86;69.17;99370.41;6155434;23;45595;-80
2023/03/14 05:59:54;;;;;;;;;3.50;2.00;;;;;11.82;68.76;99392.94;6153919;22;45720;-80
2023/03/14 06:02:19;;;;;;;;;3.75;2.75;;;;;11.91;69.60;99419.19;6153424;23;45151;-80
2023/03/14 06:04:45;;;;;;;;;5.00;1.00;;;;;11.92;68.85;99436.09;6155703;23;45379;-80
2023/03/14 06:07:10;;;;;;;;;3.00;1.75;;;;;11.75;68.34;99416.50;6153890;23;47243;-80
2023/03/14 06:09:35;;;;;;;;;2.25;1.00;;;;;11.83;67.84;99443.66;6153365;23;45815;-81
2023/03/14 06:12:01;;;;;;;;;1.00;1.00;;;;;11.78;66.89;99459.09;6154692;23;45271;-80
2023/03/14 06:14:26;;;;;;;;;2.00;2.00;;;;;11.65;67.18;99452.75;6153430;23;45757;-80
2023/03/14 06:16:52;;;;;;;;;2.25;1.25;;;;;11.52;66.37;99441.88;6153708;23;48217;-80
2023/03/14 06:19:17;;;;;;;;;3.00;3.00;;;;;11.66;66.52;99487.41;6155637;23;45218;-80
2023/03/14 06:21:43;;;;;;;;;3.75;2.00;;;;;11.53;66.21;99494.41;6153717;23;45706;-80
2023/03/14 06:24:08;;;;;;;;;5.50;4.00;;;;;11.46;66.54;99491.22;6153417;23;51017;-80
2023/03/14 06:26:34;;;;;;;;;4.00;2.00;;;;;11.56;65.96;99522.75;6152994;23;46986;-80
2023/03/14 06:29:03;;;;;;;;;1.00;1.00;;;;;11.50;65.71;99524.81;6154692;23;45170;-80
2023/03/14 06:31:31;;;;;;;;;3.25;3.25;;;;;11.55;65.46;99551.28;6153192;23;45400;-80
2023/03/14 06:33:57;;;;;;;;;2.50;1.50;;;;;11.43;64.93;99531.47;6154643;23;45207;-80
2023/03/14 06:36:22;;;;;;;;;4.50;2.00;;;;;11.55;64.84;99566.47;6154939;23;45394;-80
2023/03/14 06:38:48;;;;;;;;;3.00;2.00;;;;;11.44;64.96;99549.22;6155155;23;45128;-80
2023/03/14 06:41:13;;;;;;;;;1.00;1.00;;;;;11.30;64.70;99551.78;6155381;23;45154;-80
2023/03/14 06:43:38;;;;;;;;;4.00;2.50;;;;;11.36;65.23;99579.97;6155154;23;45116;-80
2023/03/14 06:46:04;;;;;;;;;3.75;3.75;;;;;11.48;64.56;99593.53;6153115;23;47708;-80
2023/03/14 06:48:29;;;;;;;;;3.50;2.50;;;;;11.47;64.26;99613.16;6153562;23;46253;-81
2023/03/14 06:50:54;;;;;;;;;3.25;3.00;;;;;11.41;64.05;99607.28;6154061;23;45189;-81
2023/03/14 06:53:20;;;;;;;;;4.25;1.75;;;;;11.34;64.11;99609.44;6152084;23;45637;-81
2023/03/14 06:55:45;;;;;;;;;3.25;3.25;;;;;11.41;63.87;99634.91;6154976;23;45366;-80
2023/03/14 06:58:11;;;;;;;;;2.25;2.25;;;;;11.41;64.27;99650.03;6152351;23;45196;-80
2023/03/14 07:00:36;;;;;;;;;6.00;2.25;;;;;11.27;63.95;99646.28;6152347;23;45281;-80
2023/03/14 07:03:02;;;;;;;;;3.00;3.00;;;;;11.36;63.80;99662.78;6153672;23;45452;-81
2023/03/14 07:05:27;;;;;;;;;4.00;2.50;;;;;11.40;63.62;99664.38;6154171;23;45228;-80
2023/03/14 07:07:53;;;;;;;;;2.00;1.00;;;;;11.29;63.64;99659.56;6154411;23;45246;-80
2023/03/14 07:10:18;;;;;;;;;1.00;1.00;;;;;11.38;63.41;99683.16;6154499;23;45409;-80
2023/03/14 07:12:43;;;;;;;;;6.00;2.00;;;;;11.32;63.53;99678.13;6154368;22;45375;-80
2023/03/14 07:15:09;;;;;;;;;3.00;2.25;;;;;11.35;63.42;99688.66;6152977;23;45536;-80
2023/03/14 07:17:35;;;;;;;;;2.50;1.00;;;;;11.27;63.64;99688.19;6154054;23;45246;-79
2023/03/14 07:20:00;;;;;;;;;2.00;2.00;;;;;11.37;63.08;99713.47;6154401;23;45268;-79
2023/03/14 07:22:26;;;;;;;;;0.00;0.00;;;;;11.39;62.97;99710.72;6153498;23;45515;-80
2023/03/14 07:24:51;;;;;;;;;2.75;2.00;;;;;11.35;62.55;99720.72;6153566;23;46567;-79
2023/03/14 07:27:17;;;;;;;;;1.75;1.50;;;;;11.37;62.50;99728.66;6152030;23;51807;-80
2023/03/14 07:29:42;;;;;;;;;2.75;0.00;;;;;11.32;61.61;99744.91;6153496;23;45415;-80
2023/03/14 07:32:07;;;;;;;;;3.75;1.00;;;;;11.21;61.56;99737.47;6152328;23;45350;-80
2023/03/14 07:34:33;;;;;;;;;4.75;2.00;;;;;11.11;61.99;99737.06;6153085;23;47276;-80
2023/03/14 07:36:59;;;;;;;;;2.00;1.00;;;;;11.07;61.54;99753.31;6151970;23;45928;-80
2023/03/14 07:39:24;;;;;;;;;3.50;3.00;;;;;11.02;61.60;99755.34;6154080;23;45163;-79
2023/03/14 07:41:49;;;;;;;;;2.00;1.00;;;;;11.07;61.77;99766.66;6154989;23;45460;-79
2023/03/14 07:44:15;;;;;;;;;3.00;1.00;;;;;11.06;61.39;99781.81;6151783;23;46922;-80
2023/03/14 07:46:40;;;;;;;;;1.00;1.00;;;;;10.93;61.32;99762.00;6154320;23;45156;-79
2023/03/14 07:49:05;;;;;;;;;4.25;1.00;;;;;11.06;61.22;99788.94;6154575;23;45558;-79
2023/03/14 07:51:31;;;;;;;;;2.00;2.00;;;;;10.95;61.00;99792.16;6151535;23;45816;-79
2023/03/14 07:53:56;;;;;;;;;0.00;0.00;;;;;11.04;60.98;99804.19;6153054;23;45280;-80
2023/03/14 07:56:21;;;;;;;;;1.50;1.00;;;;;11.04;61.23;99809.53;6153077;23;45292;-79
2023/03/14 07:58:46;;;;;;;;;2.75;2.00;;;;;11.05;60.72;99825.47;6151184;23;45226;-80
2023/03/14 08:01:12;;;;;;;;;1.00;1.00;;;;;10.90;61.09;99804.88;6152938;23;45219;-80
2023/03/14 08:03:38;;;;;;;;;1.00;1.00;;;;;11.08;60.69;99845.84;6146492;22;47871;-80
2023/03/14 08:06:03;;;;;;;;;2.00;1.50;;;;;10.92;60.71;99819.00;6152259;23;45410;-79
2023/03/14 08:08:28;;;;;;;;;1.25;1.00;;;;;11.10;60.82;99847.50;6152857;23;45289;-79
2023/03/14 08:10:53;;;;;;;;;1.00;0.25;;;;;11.11;60.36;99854.56;6149421;23;45373;-79
2023/03/14 08:13:19;;;;;;;;;4.00;3.00;;;;;11.11;59.97;99857.25;6150024;23;51873;-78
2023/03/14 08:15:49;;;;;;;;;3.00;1.25;;;;;11.12;60.50;99860.78;6146104;23;45619;-78
2023/03/14 08:18:14;;;;;;;;;1.00;1.00;;;;;11.10;60.16;99858.16;6151729;23;45226;-78
2023/03/14 08:20:39;;;;;;;;;4.25;2.75;;;;;11.16;60.47;99867.72;6151997;23;45210;-78
2023/03/14 08:23:05;;;;;;;;;1.00;1.00;;;;;11.17;60.40;99876.59;6151441;23;47075;-78
2023/03/14 08:25:30;;;;;;;;;2.00;1.00;;;;;11.18;60.47;99881.84;6153587;23;46832;-78
2023/03/14 08:27:55;;;;;;;;;3.00;1.00;;;;;11.26;60.83;99902.84;6152843;23;45160;-79
2023/03/14 08:30:22;;;;;;;;;3.00;1.25;;;;;11.29;60.86;99900.00;6152552;23;45420;-79
2023/03/14 08:32:47;;;;;;;;;5.25;0.75;;;;;11.32;60.66;99905.22;6152121;23;47637;-78
2023/03/14 08:35:13;;;;;;;;;1.00;1.00;;;;;11.34;60.52;99899.78;6147626;23;45549;-78
2023/03/14 08:37:39;;;;;;;;;3.75;1.00;;;;;11.30;60.51;99899.09;6152948;23;44647;-79
2023/03/14 08:40:06;;;;;;;;;2.00;2.00;;;;;11.32;60.11;99913.22;6151464;23;45481;-78
2023/03/14 08:42:35;;;;;;;;;3.00;1.00;;;;;11.28;60.19;99901.84;6151456;23;45240;-78
2023/03/14 08:45:00;;;;;;;;;1.00;0.00;;;;;11.42;60.62;99935.03;6151496;23;45325;-78
2023/03/14 08:47:26;;;;;;;;;1.50;1.50;;;;;11.37;60.67;99916.53;6151384;23;45258;-78
2023/03/14 08:49:51;;;;;;;;;1.50;0.00;;;;;11.37;60.63;99918.34;6150163;23;45590;-78
2023/03/14 08:52:16;;;;;;;;;2.50;2.00;;;;;11.45;60.71;99926.88;6149385;23;47402;-78
2023/03/14 08:54:43;;;;;;;;;1.50;1.00;;;;;11.35;60.22;99923.78;6147644;23;45683;-78
2023/03/14 08:57:09;;;;;;;;;0.75;0.25;;;;;11.53;60.32;99951.41;6149852;23;45664;-78
2023/03/14 08:59:34;;;;;;;;;2.75;1.75;;;;;11.45;60.43;99943.75;6149518;22;45283;-78
2023/03/14 09:02:03;;;;;;;;;2.00;0.25;;;;;11.48;60.07;99954.31;6149533;23;58606;-78
2023/03/14 09:04:29;;;;;;;;;3.00;1.00;;;;;11.50;60.46;99946.22;6149618;23;45486;-78
2023/03/14 09:06:55;;;;;;;;;1.25;1.00;;;;;11.57;59.94;99957.47;6149542;23;46575;-78
2023/03/14 09:09:20;;;;;;;;;2.00;1.00;;;;;11.50;59.92;99959.56;6150428;23;48134;-78
2023/03/14 09:11:46;;;;;;;;;1.00;1.00;;;;;11.62;60.20;99964.31;6151538;23;47381;-78
2023/03/14 09:14:12;;;;;;;;;0.50;0.00;;;;;11.65;60.15;99977.53;6152091;23;45207;-78
2023/03/14 09:16:37;;;;;;;;;1.25;1.00;;;;;11.63;60.47;99973.22;6151148;23;45374;-78
2023/03/14 09:19:03;;;;;;;;;1.00;1.00;;;;;11.73;59.70;99977.16;6148581;23;45612;-78
2023/03/14 09:21:28;;;;;;;;;2.00;1.75;;;;;11.68;59.67;99990.75;6150985;23;45281;-77
2023/03/14 09:23:53;;;;;;;;;2.00;1.00;;;;;11.66;59.96;99989.06;6151068;23;45298;-77
2023/03/14 09:26:19;;;;;;;;;1.75;1.00;;;;;11.70;60.26;100000.50;6150407;23;45223;-78
2023/03/14 09:28:45;;;;;;;;;0.25;0.25;;;;;11.60;60.20;99994.75;6150689;23;45344;-78
2023/03/14 09:31:12;;;;;;;;;2.25;1.25;;;;;11.72;59.63;100012.84;6150646;23;45392;-78
2023/03/14 09:33:38;;;;;;;;;1.25;1.00;;;;;11.61;59.90;99999.13;6150392;23;45195;-78
2023/03/14 09:36:04;;;;;;;;;0.00;0.00;;;;;11.77;59.56;100032.19;6151188;23;45287;-78
2023/03/14 09:38:29;;;;;;;;;0.50;0.50;;;;;11.74;59.50;100050.22;6150135;23;45322;-78
2023/03/14 09:40:58;;;;;;;;;0.50;0.00;;;;;11.69;60.07;100058.44;6151455;23;45313;-78
2023/03/14 09:43:26;;;;;;;;;1.50;1.00;;;;;11.64;61.26;100088.09;6152605;23;45542;-79
2023/03/14 09:45:52;;;;;;;;;0.00;0.00;;;;;11.58;62.83;100093.72;6151023;23;45284;-78
2023/03/14 09:48:25;;;;;;;;;1.25;0.00;;;;;11.45;63.24;100104.09;6152138;23;45262;-78
2023/03/14 09:50:54;;;;;;;;;1.00;0.00;;;;;11.36;64.30;100090.28;6151358;23;45267;-79
2023/03/14 09:53:23;;;;;;;;;2.00;1.00;;;;;11.27;64.61;100096.94;6151382;23;45521;-78
2023/03/14 09:55:52;;;;;;;;;0.00;0.00;;;;;11.26;65.35;100097.84;6149493;23;45270;-78
2023/03/14 09:58:20;;;;;;;;;0.00;0.00;;;;;11.21;65.82;100089.19;6151620;23;45308;-78
2023/03/14 10:00:46;;;;;;;;;3.00;0.00;;;;;11.29;66.27;100106.63;6150832;23;45520;-78
2023/03/14 10:03:11;;;;;;;;;0.25;0.00;;;;;11.30;66.32;100104.81;6152929;23;45277;-78
2023/03/14 10:05:36;;;;;;;;;2.67;1.00;;;;;11.21;66.59;100098.09;6153423;23;45309;-78
2023/03/14 10:08:02;;;;;;;;;0.75;0.00;;;;;11.32;66.65;100164.38;6153163;23;45257;-78
2023/03/14 10:10:27;;;;;;;;;0.00;0.00;;;;;11.16;65.84;100157.97;6153145;23;46204;-78
2023/03/14 10:13:12;;;;;;;;;0.00;0.00;;;;;11.10;65.54;100160.00;6151909;23;45237;-78
2023/03/14 10:15:38;;;;;;;;;0.00;0.00;;;;;10.97;66.19;100165.94;6152565;23;45420;-78
2023/03/14 10:18:12;;;;;;;;;1.25;1.25;;;;;10.80;65.86;100167.53;6151359;23;45214;-78
2023/03/14 10:20:41;;;;;;;;;0.00;0.00;;;;;10.89;65.65;100200.97;6152896;23;45853;-77
2023/03/14 10:23:12;;;;;;;;;0.00;0.00;;;;;10.85;65.81;100186.03;6153675;23;45144;-78
2023/03/14 10:25:44;;;;;;;;;0.00;0.00;;;;;10.66;65.23;100161.91;6150763;22;45337;-83
2023/03/14 10:28:30;;;;;;;;;0.00;0.00;;;;;10.70;64.62;100172.38;6137363;22;45353;-81
2023/03/14 10:30:57;;;;;;;;;0.50;0.00;;;;;10.67;64.98;100168.97;6149872;23;46915;-81
2023/03/14 10:33:24;;;;;;;;;0.75;0.00;;;;;10.82;65.63;100183.50;6152648;23;45466;-78
2023/03/14 10:35:59;;;;;;;;;1.25;0.75;;;;;10.86;65.25;100199.31;6153422;23;45234;-78
2023/03/14 10:38:28;;;;;;;;;0.00;0.00;;;;;10.90;65.08;100198.25;6152193;23;45348;-79
2023/03/14 10:40:55;;;;;;;;;2.00;1.00;;;;;10.90;64.61;100194.72;6151266;23;45186;-77
2023/03/14 10:43:33;;;;;;;;;1.00;1.00;;;;;10.88;65.75;100176.09;6151803;23;45206;-78
2023/03/14 10:46:05;;;;;;;;;1.00;1.00;;;;;11.00;65.97;100200.53;6151214;23;45348;-78
2023/03/14 10:48:33;;;;;;;;;3.50;1.25;;;;;10.98;65.36;100199.75;6152979;23;45273;-78
2023/03/14 10:51:06;;;;;;;;;2.00;2.00;;;;;11.01;65.53;100218.28;6152717;23;45293;-78
2023/03/14 10:53:47;;;;;;;;;0.50;0.50;;;;;11.00;64.93;100214.75;6152942;23;45293;-78
2023/03/14 10:56:23;;;;;;;;;1.00;0.00;;;;;11.08;64.58;100236.66;6152049;23;45190;-79
2023/03/14 10:58:58;;;;;;;;;1.00;0.00;;;;;11.06;64.04;100286.59;6150120;23;45559;-79
2023/03/14 11:02:01;;;;;;;;;0.00;0.00;;;;;11.04;63.48;100288.47;6152471;23;45505;-79
2023/03/14 11:04:35;;;;;;;;;3.00;0.00;;;;;10.95;63.34;100272.81;6150996;23;45707;-79
2023/03/14 11:07:14;;;;;;;;;1.00;0.00;;;;;10.93;64.12;100264.88;6152341;22;45236;-79
2023/03/14 11:09:49;;;;;;;;;0.00;0.00;;;;;10.93;63.48;100267.53;6149674;23;45669;-79
2023/03/14 11:12:48;;;;;;;;;1.00;1.00;;;;;10.98;62.42;100269.19;6151642;23;47353;-79
2023/03/14 11:15:23;;;;;;;;;0.50;0.00;;;;;10.79;63.39;100229.84;6152949;22;45723;-79
2023/03/14 11:18:26;;;;;;;;;0.25;0.25;;;;;11.03;62.69;100259.16;6152335;23;45344;-79
2023/03/14 11:20:58;;;;;;;;;0.25;0.00;;;;;11.00;61.97;100253.94;6153548;23;45629;-80
2023/03/14 11:23:32;;;;;;;;;2.00;1.00;;;;;11.10;62.48;100271.31;6153583;23;45369;-79
2023/03/14 11:26:27;;;;;;;;;1.75;0.75;;;;;11.15;62.53;100273.81;6148735;23;45477;-79
2023/03/14 11:28:58;;;;;;;;;1.00;0.00;;;;;11.18;61.42;100271.00;6151658;23;45246;-79
2023/03/14 11:31:29;;;;;;;;;2.00;0.00;;;;;11.13;59.87;100264.03;6151703;23;45651;-79